Time;durP1;ratioP1;P1;durP2;ratioP2;P2;SDS_P1;SDS_P2;PMS_P1;PMS_P2;Temp;Humidity;BMP_temperature;BMP_pressure;BME280_temperature;BME280_humidity;BME280_pressure;Samples;Min_cycle;Max_cycle;Signal;HPM_P1;HPM_P2
2021/12/30 00:01:53;;;;;;;6.88;4.60;;;;;;;-140.79;100.00;63287.88;5025056;28;20044;-52
2021/12/30 00:04:19;;;;;;;5.15;4.18;;;;;;;-140.79;100.00;63287.88;5024959;28;20037;-52
2021/12/30 00:06:44;;;;;;;5.43;4.40;;;;;;;-140.79;100.00;63287.88;5024756;28;20030;-53
2021/12/30 00:09:11;;;;;;;6.05;4.50;;;;;;;-140.79;100.00;63287.88;5024876;28;20400;-53
2021/12/30 00:11:37;;;;;;;6.10;4.25;;;;;;;-140.79;100.00;63287.88;5024476;28;20492;-52
2021/12/30 00:14:03;;;;;;;5.15;4.28;;;;;;;-140.79;100.00;63287.88;5024564;28;20057;-52
2021/12/30 00:16:28;;;;;;;5.45;4.18;;;;;;;-140.79;100.00;63287.88;5024655;28;20399;-51
2021/12/30 00:18:53;;;;;;;6.10;4.70;;;;;;;-140.79;100.00;63287.88;5024517;28;20115;-52
2021/12/30 00:21:20;;;;;;;5.72;4.18;;;;;;;-140.79;100.00;63287.88;5024196;28;20037;-52
2021/12/30 00:23:46;;;;;;;4.97;4.05;;;;;;;-140.79;100.00;63287.88;5024323;28;20053;-52
2021/12/30 00:26:11;;;;;;;4.47;3.92;;;;;;;-140.79;100.00;63287.88;5024496;28;20555;-52
2021/12/30 00:28:37;;;;;;;4.72;3.95;;;;;;;-140.79;100.00;63287.88;5024345;28;20064;-52
2021/12/30 00:31:02;;;;;;;4.93;3.90;;;;;;;-140.79;100.00;63287.88;5024746;28;20393;-52
2021/12/30 00:33:28;;;;;;;4.88;4.07;;;;;;;-140.79;100.00;63287.88;5023811;28;20026;-52
2021/12/30 00:35:53;;;;;;;5.25;3.95;;;;;;;-140.79;100.00;63287.88;5024331;28;20072;-52
2021/12/30 00:38:19;;;;;;;5.00;4.15;;;;;;;-140.79;100.00;63287.88;5024281;28;20029;-52
2021/12/30 00:40:44;;;;;;;4.30;3.63;;;;;;;-140.79;100.00;63287.88;5024151;28;20040;-52
2021/12/30 00:43:10;;;;;;;5.63;3.80;;;;;;;-140.79;100.00;63287.88;5024396;28;20112;-52
2021/12/30 00:45:35;;;;;;;5.70;3.65;;;;;;;-140.79;100.00;63287.88;5057747;28;20552;-52
2021/12/30 00:48:01;;;;;;;5.10;3.83;;;;;;;-140.79;100.00;63287.88;5028197;28;20112;-52
2021/12/30 00:50:27;;;;;;;4.53;3.70;;;;;;;-140.79;100.00;63287.88;5028257;28;20143;-52
2021/12/30 00:52:53;;;;;;;5.03;3.90;;;;;;;-140.79;100.00;63287.88;5027986;28;20057;-52
2021/12/30 00:55:18;;;;;;;4.07;3.42;;;;;;;-140.79;100.00;63287.88;5027773;28;20037;-52
2021/12/30 00:57:44;;;;;;;4.40;3.67;;;;;;;-140.79;100.00;63287.88;5028030;28;20091;-52
2021/12/30 01:00:13;;;;;;;4.13;3.40;;;;;;;-140.79;100.00;63287.88;5028260;28;20404;-52
2021/12/30 01:02:38;;;;;;;4.30;3.50;;;;;;;-140.79;100.00;63287.88;5027834;28;20044;-52
2021/12/30 01:05:04;;;;;;;4.55;3.58;;;;;;;-140.79;100.00;63287.88;5027768;28;20104;-52
2021/12/30 01:07:29;;;;;;;4.57;3.20;;;;;;;-140.79;100.00;63287.88;5027488;28;20132;-51
2021/12/30 01:09:55;;;;;;;4.30;3.33;;;;;;;-140.79;100.00;63287.88;5027794;28;20033;-52
2021/12/30 01:12:20;;;;;;;4.10;3.40;;;;;;;-140.79;100.00;63287.88;5027689;28;20037;-53
2021/12/30 01:14:47;;;;;;;3.85;3.08;;;;;;;-140.79;100.00;63287.88;5027037;28;20683;-52
2021/12/30 01:17:28;;;;;;;4.07;3.08;;;;;;;-140.79;100.00;63287.88;5025116;28;20034;-55
2021/12/30 01:19:54;;;;;;;4.38;3.08;;;;;;;-140.79;100.00;63287.88;5025194;28;20033;-52
2021/12/30 01:22:23;;;;;;;3.75;2.88;;;;;;;-140.79;100.00;63287.88;5024731;28;20107;-52
2021/12/30 01:24:49;;;;;;;4.30;3.33;;;;;;;-140.79;100.00;63287.88;5025043;28;20029;-52
2021/12/30 01:27:14;;;;;;;4.90;3.58;;;;;;;-140.79;100.00;63287.88;5024885;28;20092;-52
2021/12/30 01:29:40;;;;;;;3.88;3.47;;;;;;;-140.79;100.00;63287.88;5024580;28;20065;-52
2021/12/30 01:32:06;;;;;;;3.58;3.08;;;;;;;-140.79;100.00;63287.88;5025041;28;20010;-52
2021/12/30 01:34:32;;;;;;;3.88;2.90;;;;;;;-140.79;100.00;63287.88;5024843;28;20033;-52
2021/12/30 01:37:01;;;;;;;4.05;3.10;;;;;;;-140.79;100.00;63287.88;5024947;28;20029;-53
2021/12/30 01:39:26;;;;;;;3.88;3.10;;;;;;;-140.79;100.00;63287.88;5024288;28;20068;-52
2021/12/30 01:41:52;;;;;;;3.80;2.90;;;;;;;-140.79;100.00;63287.88;5024611;28;20482;-52
2021/12/30 01:44:17;;;;;;;4.00;3.40;;;;;;;-140.79;100.00;63287.88;5024437;28;20017;-52
2021/12/30 01:46:43;;;;;;;6.25;3.33;;;;;;;-140.79;100.00;63287.88;5024518;28;20112;-52
2021/12/30 01:49:09;;;;;;;3.97;3.13;;;;;;;-140.79;100.00;63287.88;5024659;28;20048;-52
2021/12/30 01:51:35;;;;;;;3.65;2.65;;;;;;;-140.79;100.00;63287.88;5024055;28;20065;-52
2021/12/30 01:54:00;;;;;;;4.03;2.95;;;;;;;-140.79;100.00;63287.88;5024059;28;20048;-52
2021/12/30 01:56:26;;;;;;;3.45;2.80;;;;;;;-140.79;100.00;63287.88;5023255;28;20033;-52
2021/12/30 01:58:53;;;;;;;3.70;2.65;;;;;;;-140.79;100.00;63287.88;5022722;28;20030;-52
2021/12/30 02:01:18;;;;;;;3.25;2.65;;;;;;;-140.79;100.00;63287.88;5023048;28;20419;-51
2021/12/30 02:03:44;;;;;;;3.60;2.80;;;;;;;-140.79;100.00;63287.88;5024058;28;20045;-52
2021/12/30 02:06:09;;;;;;;3.38;2.50;;;;;;;-140.79;100.00;63287.88;5024525;28;20037;-52
2021/12/30 02:08:35;;;;;;;2.83;2.30;;;;;;;-140.79;100.00;63287.88;5024223;28;20038;-52
2021/12/30 02:11:00;;;;;;;4.00;3.00;;;;;;;-140.79;100.00;63287.88;5022689;28;20032;-52
2021/12/30 02:13:25;;;;;;;3.20;2.67;;;;;;;-140.79;100.00;63287.88;5022350;28;20029;-52
2021/12/30 02:15:51;;;;;;;3.53;2.78;;;;;;;-140.79;100.00;63287.88;5022834;28;20095;-52
2021/12/30 02:18:17;;;;;;;3.45;2.42;;;;;;;-140.79;100.00;63287.88;5024153;28;20049;-52
2021/12/30 02:20:45;;;;;;;3.08;2.58;;;;;;;-140.79;100.00;63287.88;5023905;28;20044;-52
2021/12/30 02:23:16;;;;;;;3.08;2.53;;;;;;;-140.79;100.00;63287.88;5023660;28;20049;-52
2021/12/30 02:25:42;;;;;;;3.95;2.60;;;;;;;-140.79;100.00;63287.88;5023461;28;20036;-52
2021/12/30 02:28:09;;;;;;;3.95;3.00;;;;;;;-140.79;100.00;63287.88;5023867;28;20037;-51
2021/12/30 02:30:35;;;;;;;3.38;2.50;;;;;;;-140.79;100.00;63287.88;5023670;28;20119;-51
2021/12/30 02:33:00;;;;;;;3.10;2.55;;;;;;;-140.79;100.00;63287.88;5023775;28;20029;-52
2021/12/30 02:35:26;;;;;;;2.78;2.33;;;;;;;-140.79;100.00;63287.88;5023212;28;20041;-52
2021/12/30 02:37:51;;;;;;;3.30;2.60;;;;;;;-140.79;100.00;63287.88;5023106;28;20504;-52
2021/12/30 02:40:27;;;;;;;3.65;2.80;;;;;;;-140.79;100.00;63287.88;5023731;28;20033;-52
2021/12/30 02:42:53;;;;;;;2.95;2.30;;;;;;;-140.79;100.00;63287.88;5023343;28;20049;-53
2021/12/30 02:45:18;;;;;;;3.40;2.22;;;;;;;-140.79;100.00;63287.88;5023410;28;20038;-52
2021/12/30 02:47:44;;;;;;;3.25;2.45;;;;;;;-140.79;100.00;63287.88;5022807;28;20033;-52
2021/12/30 02:50:09;;;;;;;3.08;2.17;;;;;;;-140.79;100.00;63287.88;5023584;28;20033;-52
2021/12/30 02:52:35;;;;;;;2.65;2.00;;;;;;;-140.79;100.00;63287.88;5023293;28;20527;-53
2021/12/30 02:55:00;;;;;;;3.22;2.10;;;;;;;-140.79;100.00;63287.88;5038815;28;20083;-52
2021/12/30 02:57:26;;;;;;;2.92;2.28;;;;;;;-140.79;100.00;63287.88;5023142;28;20545;-52
2021/12/30 02:59:51;;;;;;;3.10;2.13;;;;;;;-140.79;100.00;63287.88;5023256;28;20507;-53
2021/12/30 03:02:16;;;;;;;2.88;2.22;;;;;;;-140.79;100.00;63287.88;5023414;28;20570;-52
2021/12/30 03:04:42;;;;;;;2.70;2.08;;;;;;;-140.79;100.00;63287.88;5023008;28;20468;-51
2021/12/30 03:07:07;;;;;;;3.05;2.20;;;;;;;-140.79;100.00;63287.88;5023056;28;20543;-53
2021/12/30 03:09:33;;;;;;;2.85;2.13;;;;;;;-140.79;100.00;63287.88;5022986;28;20034;-52
2021/12/30 03:11:58;;;;;;;2.63;2.10;;;;;;;-140.79;100.00;63287.88;5023199;28;20053;-52
2021/12/30 03:14:25;;;;;;;2.55;2.08;;;;;;;-140.79;100.00;63287.88;5022847;28;20029;-52
2021/12/30 03:16:51;;;;;;;2.63;1.88;;;;;;;-140.79;100.00;63287.88;5022963;28;20041;-52
2021/12/30 03:19:16;;;;;;;2.55;1.77;;;;;;;-140.79;100.00;63287.88;5022654;28;20079;-52
2021/12/30 03:21:42;;;;;;;2.25;1.70;;;;;;;-140.79;100.00;63287.88;5022300;28;20040;-51
2021/12/30 03:24:08;;;;;;;3.03;2.20;;;;;;;-140.79;100.00;63287.88;5022658;28;20595;-52
2021/12/30 03:26:35;;;;;;;2.67;2.03;;;;;;;-140.79;100.00;63287.88;5022552;28;20022;-52
2021/12/30 03:29:00;;;;;;;2.38;1.92;;;;;;;-140.79;100.00;63287.88;5022681;28;20026;-52
2021/12/30 03:31:26;;;;;;;2.30;1.83;;;;;;;-140.79;100.00;63287.88;5022292;28;20518;-52
2021/12/30 03:33:51;;;;;;;2.53;2.10;;;;;;;-140.79;100.00;63287.88;5022315;28;20029;-52
2021/12/30 03:36:17;;;;;;;2.65;1.75;;;;;;;-140.79;100.00;63287.88;5037722;28;20778;-52
2021/12/30 03:38:44;;;;;;;2.17;1.70;;;;;;;-140.79;100.00;63287.88;5022095;28;20056;-52
2021/12/30 03:41:10;;;;;;;2.53;1.80;;;;;;;-140.79;100.00;63287.88;5022428;28;20041;-52
2021/12/30 03:43:36;;;;;;;2.17;1.85;;;;;;;-140.79;100.00;63287.88;5021901;28;20030;-52
2021/12/30 03:46:03;;;;;;;2.33;1.70;;;;;;;-140.79;100.00;63287.88;5022316;28;20887;-52
2021/12/30 03:48:33;;;;;;;2.60;1.85;;;;;;;-140.79;100.00;63287.88;5022154;28;20030;-52
2021/12/30 03:51:05;;;;;;;2.22;1.63;;;;;;;-140.79;100.00;63287.88;5022106;28;20484;-52
2021/12/30 03:53:38;;;;;;;2.75;1.80;;;;;;;-140.79;100.00;63287.88;5022298;28;20029;-52
2021/12/30 03:56:07;;;;;;;2.30;1.80;;;;;;;-140.79;100.00;63287.88;5022004;28;20033;-52
2021/12/30 03:58:32;;;;;;;2.40;1.90;;;;;;;-140.79;100.00;63287.88;5021977;28;20041;-52
2021/12/30 04:00:58;;;;;;;2.45;1.58;;;;;;;-140.79;100.00;63287.88;5020645;28;20102;-52
2021/12/30 04:03:24;;;;;;;2.10;1.70;;;;;;;-140.79;100.00;63287.88;5021925;28;20053;-52
2021/12/30 04:05:49;;;;;;;2.45;1.90;;;;;;;-140.79;100.00;63287.88;5021811;28;20037;-51
2021/12/30 04:08:14;;;;;;;2.30;1.40;;;;;;;-140.79;100.00;63287.88;5022007;28;20041;-52
2021/12/30 04:10:40;;;;;;;2.10;1.55;;;;;;;-140.79;100.00;63287.88;5021896;28;20036;-51
2021/12/30 04:13:05;;;;;;;2.42;1.75;;;;;;;-140.79;100.00;63287.88;5022176;28;20029;-52
2021/12/30 04:15:31;;;;;;;2.60;1.60;;;;;;;-140.79;100.00;63287.88;5021891;28;20033;-52
2021/12/30 04:17:56;;;;;;;1.75;1.30;;;;;;;-140.79;100.00;63287.88;5021823;28;20172;-52
2021/12/30 04:20:22;;;;;;;2.10;1.38;;;;;;;-140.79;100.00;63287.88;5021576;28;20408;-52
2021/12/30 04:22:47;;;;;;;2.88;2.00;;;;;;;-140.79;100.00;63287.88;5021673;28;20420;-51
2021/12/30 04:25:13;;;;;;;2.38;1.83;;;;;;;-140.79;100.00;63287.88;5022089;28;20896;-52
2021/12/30 04:27:39;;;;;;;2.25;1.70;;;;;;;-140.79;100.00;63287.88;5021829;28;20041;-52
2021/12/30 04:30:05;;;;;;;2.47;1.70;;;;;;;-140.79;100.00;63287.88;5021619;28;20055;-52
2021/12/30 04:32:30;;;;;;;2.08;1.40;;;;;;;-140.79;100.00;63287.88;5021727;28;20029;-53
2021/12/30 04:34:56;;;;;;;2.35;1.70;;;;;;;-140.79;100.00;63287.88;5020598;28;20447;-52
2021/12/30 04:37:21;;;;;;;2.00;1.70;;;;;;;-140.79;100.00;63287.88;5021560;28;20024;-52
2021/12/30 04:39:47;;;;;;;2.47;1.73;;;;;;;-140.79;100.00;63287.88;5021494;28;20040;-52
2021/12/30 04:42:12;;;;;;;1.90;1.50;;;;;;;-140.79;100.00;63287.88;5021683;28;20037;-52
2021/12/30 04:44:38;;;;;;;1.83;1.45;;;;;;;-140.79;100.00;63287.88;5021563;28;20470;-52
2021/12/30 04:47:03;;;;;;;2.00;1.50;;;;;;;-140.79;100.00;63287.88;5021524;28;20041;-52
2021/12/30 04:49:29;;;;;;;2.05;1.60;;;;;;;-140.79;100.00;63287.88;5021472;28;20112;-52
2021/12/30 04:51:54;;;;;;;2.00;1.50;;;;;;;-140.79;100.00;63287.88;5021430;28;20498;-53
2021/12/30 04:54:20;;;;;;;1.75;1.23;;;;;;;-140.79;100.00;63287.88;5021746;28;20036;-52
2021/12/30 04:56:45;;;;;;;1.90;1.33;;;;;;;-140.79;100.00;63287.88;5021843;28;20793;-52
2021/12/30 04:59:11;;;;;;;1.88;1.50;;;;;;;-140.79;100.00;63287.88;5021594;28;20041;-52
2021/12/30 05:01:38;;;;;;;1.70;1.30;;;;;;;-140.79;100.00;63287.88;5021495;28;20056;-52
2021/12/30 05:04:03;;;;;;;2.60;1.58;;;;;;;-140.79;100.00;63287.88;5021293;28;20087;-52
2021/12/30 05:06:31;;;;;;;1.90;1.25;;;;;;;-140.79;100.00;63287.88;5021538;28;20159;-52
2021/12/30 05:08:57;;;;;;;2.10;1.60;;;;;;;-140.79;100.00;63287.88;5021630;28;20042;-52
2021/12/30 05:11:22;;;;;;;2.08;1.30;;;;;;;-140.79;100.00;63287.88;5020121;28;20037;-52
2021/12/30 05:13:48;;;;;;;2.22;1.67;;;;;;;-140.79;100.00;63287.88;5020537;28;20033;-52
2021/12/30 05:16:15;;;;;;;2.25;1.40;;;;;;;-140.79;100.00;63287.88;5021496;28;20038;-52
2021/12/30 05:18:41;;;;;;;1.85;1.20;;;;;;;-140.79;100.00;63287.88;5021423;28;20037;-53
2021/12/30 05:21:06;;;;;;;2.08;1.50;;;;;;;-140.79;100.00;63287.88;5021563;28;20409;-51
2021/12/30 05:23:32;;;;;;;1.65;1.27;;;;;;;-140.79;100.00;63287.88;5021154;28;20107;-51
2021/12/30 05:25:57;;;;;;;1.50;1.20;;;;;;;-140.79;100.00;63287.88;5020984;28;20030;-52
2021/12/30 05:28:23;;;;;;;2.00;1.38;;;;;;;-140.79;100.00;63287.88;5021294;28;20542;-53
2021/12/30 05:30:48;;;;;;;1.55;1.10;;;;;;;-140.79;100.00;63287.88;5020095;28;20029;-50
2021/12/30 05:33:14;;;;;;;1.52;1.30;;;;;;;-140.79;100.00;63287.88;5023947;28;20032;-52
2021/12/30 05:35:39;;;;;;;1.80;1.20;;;;;;;-140.79;100.00;63287.88;5024821;28;20033;-52
2021/12/30 05:38:05;;;;;;;2.42;1.48;;;;;;;-140.79;100.00;63287.88;5024408;28;20025;-52
2021/12/30 05:40:30;;;;;;;1.75;1.20;;;;;;;-140.79;100.00;63287.88;5024862;28;20029;-51
2021/12/30 05:42:56;;;;;;;2.33;1.27;;;;;;;-140.79;100.00;63287.88;5023596;28;20040;-53
2021/12/30 05:45:21;;;;;;;1.55;1.10;;;;;;;-140.79;100.00;63287.88;5024904;28;20025;-52
2021/12/30 05:47:48;;;;;;;2.00;1.50;;;;;;;-140.79;100.00;63287.88;5024581;28;20041;-52
2021/12/30 05:50:24;;;;;;;2.03;1.30;;;;;;;-140.79;100.00;63287.88;5022986;28;20499;-52
2021/12/30 05:52:50;;;;;;;2.00;1.48;;;;;;;-140.79;100.00;63287.88;5052105;28;20030;-53
2021/12/30 05:55:15;;;;;;;2.15;1.50;;;;;;;-140.79;100.00;63287.88;5023941;28;20033;-52
2021/12/30 05:57:41;;;;;;;1.60;1.35;;;;;;;-140.79;100.00;63287.88;5024101;28;20044;-54
2021/12/30 06:00:08;;;;;;;1.75;1.27;;;;;;;-140.79;100.00;63287.88;5024042;28;20148;-52
2021/12/30 06:02:34;;;;;;;2.00;1.35;;;;;;;-140.79;100.00;63287.88;5024243;28;20033;-53
2021/12/30 06:04:59;;;;;;;1.75;1.30;;;;;;;-140.79;100.00;63287.88;5024228;28;20022;-53
2021/12/30 06:07:24;;;;;;;1.50;1.00;;;;;;;-140.79;100.00;63287.88;5024271;28;20030;-53
2021/12/30 06:09:50;;;;;;;1.58;0.90;;;;;;;-140.79;100.00;63287.88;5023863;28;20036;-53
2021/12/30 06:12:15;;;;;;;1.70;1.00;;;;;;;-140.79;100.00;63287.88;5024119;28;20014;-52
2021/12/30 06:14:41;;;;;;;1.30;1.00;;;;;;;-140.79;100.00;63287.88;5023097;28;20057;-52
2021/12/30 06:17:06;;;;;;;1.40;1.10;;;;;;;-140.79;100.00;63287.88;5023351;28;20510;-52
2021/12/30 06:19:32;;;;;;;1.60;1.20;;;;;;;-140.79;100.00;63287.88;5022993;28;20412;-52
2021/12/30 06:21:57;;;;;;;1.58;1.08;;;;;;;-140.79;100.00;63287.88;5009090;28;20034;-53
2021/12/30 06:24:23;;;;;;;1.30;1.08;;;;;;;-140.79;100.00;63287.88;5013114;28;20029;-53
2021/12/30 06:26:48;;;;;;;1.20;0.80;;;;;;;-140.79;100.00;63287.88;5006512;28;20030;-52
2021/12/30 06:29:14;;;;;;;1.83;1.17;;;;;;;-140.79;100.00;63287.88;5003532;28;20068;-52
2021/12/30 06:31:41;;;;;;;1.98;1.40;;;;;;;-140.79;100.00;63287.88;5006209;28;20412;-52
2021/12/30 06:34:06;;;;;;;1.50;1.08;;;;;;;-140.79;100.00;63287.88;5006541;28;20030;-53
2021/12/30 06:36:31;;;;;;;1.50;1.10;;;;;;;-140.79;100.00;63287.88;5002379;28;20038;-53
2021/12/30 06:38:57;;;;;;;1.27;1.00;;;;;;;-140.79;100.00;63287.88;5006277;28;20033;-52
2021/12/30 06:41:22;;;;;;;1.67;1.05;;;;;;;-140.79;100.00;63287.88;5005456;28;20030;-53
2021/12/30 06:43:48;;;;;;;1.48;1.00;;;;;;;-140.79;100.00;63287.88;5003613;28;20032;-52
2021/12/30 06:46:14;;;;;;;1.42;0.98;;;;;;;-140.79;100.00;63287.88;5003748;28;20495;-53
2021/12/30 06:48:44;;;;;;;1.45;1.00;;;;;;;-140.79;100.00;63287.88;5002540;28;20037;-52
2021/12/30 06:51:11;;;;;;;1.65;1.05;;;;;;;-140.79;100.00;63287.88;5014219;28;20166;-53
2021/12/30 06:53:36;;;;;;;1.48;1.00;;;;;;;-140.79;100.00;63287.88;5019728;28;20026;-53
2021/12/30 06:56:01;;;;;;;1.33;1.00;;;;;;;-140.79;100.00;63287.88;5022977;28;20041;-52
2021/12/30 06:58:27;;;;;;;1.73;0.90;;;;;;;-140.79;100.00;63287.88;5023073;28;20040;-53
2021/12/30 07:00:52;;;;;;;1.30;1.00;;;;;;;-140.79;100.00;63287.88;5023065;28;20033;-53
2021/12/30 07:03:18;;;;;;;1.65;1.10;;;;;;;-140.79;100.00;63287.88;5037990;28;20030;-52
2021/12/30 07:05:44;;;;;;;1.48;0.98;;;;;;;-140.79;100.00;63287.88;5022182;28;20033;-52
2021/12/30 07:08:09;;;;;;;1.42;1.10;;;;;;;-140.79;100.00;63287.88;5022090;28;20198;-53
2021/12/30 07:10:35;;;;;;;1.55;1.17;;;;;;;-140.79;100.00;63287.88;5022307;28;20589;-52
2021/12/30 07:13:00;;;;;;;1.73;1.00;;;;;;;-140.79;100.00;63287.88;5022283;28;20543;-54
2021/12/30 07:15:26;;;;;;;1.60;1.00;;;;;;;-140.79;100.00;63287.88;5022299;28;20025;-53
2021/12/30 07:17:51;;;;;;;1.40;0.95;;;;;;;-140.79;100.00;63287.88;5022029;28;20041;-52
2021/12/30 07:20:17;;;;;;;2.03;1.17;;;;;;;-140.79;100.00;63287.88;5027434;28;20036;-53
2021/12/30 07:22:42;;;;;;;1.48;1.05;;;;;;;-140.79;100.00;63287.88;5020581;28;20068;-53
2021/12/30 07:25:08;;;;;;;1.30;1.00;;;;;;;-140.79;100.00;63287.88;5020618;28;20036;-53
2021/12/30 07:27:33;;;;;;;1.60;1.10;;;;;;;-140.79;100.00;63287.88;5021300;28;20040;-53
2021/12/30 07:29:59;;;;;;;1.58;1.02;;;;;;;-140.79;100.00;63287.88;5021370;28;20026;-53
2021/12/30 07:32:28;;;;;;;1.25;0.90;;;;;;;-140.79;100.00;63287.88;5021694;28;20037;-52
2021/12/30 07:34:53;;;;;;;2.10;1.20;;;;;;;-140.79;100.00;63287.88;5020519;28;20053;-52
2021/12/30 07:37:19;;;;;;;1.50;1.00;;;;;;;-140.79;100.00;63287.88;5021130;28;20029;-52
2021/12/30 07:39:45;;;;;;;1.40;0.95;;;;;;;-140.79;100.00;63287.88;5027132;28;20116;-53
2021/12/30 07:42:11;;;;;;;1.10;0.90;;;;;;;-140.79;100.00;63287.88;5021317;28;20385;-52
2021/12/30 07:44:37;;;;;;;1.63;0.98;;;;;;;-140.79;100.00;63287.88;5021577;28;20576;-53
2021/12/30 07:47:03;;;;;;;1.15;0.80;;;;;;;-140.79;100.00;63287.88;5021578;28;20045;-53
2021/12/30 07:49:28;;;;;;;1.23;0.90;;;;;;;-140.79;100.00;63287.88;5021649;28;20496;-53
2021/12/30 07:51:54;;;;;;;1.27;0.90;;;;;;;-140.79;100.00;63287.88;5004720;28;20579;-52
2021/12/30 07:54:19;;;;;;;1.50;0.90;;;;;;;-140.79;100.00;63287.88;5026034;28;20040;-53
2021/12/30 07:56:45;;;;;;;1.48;1.00;;;;;;;-140.79;100.00;63287.88;5021694;28;20072;-53
2021/12/30 07:59:10;;;;;;;1.48;1.00;;;;;;;-140.79;100.00;63287.88;5021906;28;20021;-53
2021/12/30 08:01:36;;;;;;;1.67;0.98;;;;;;;-140.79;100.00;63287.88;5022074;28;20037;-53
2021/12/30 08:04:01;;;;;;;1.95;1.05;;;;;;;-140.79;100.00;63287.88;5020085;28;20033;-53
2021/12/30 08:06:28;;;;;;;1.50;0.98;;;;;;;-140.79;100.00;63287.88;5021712;28;20029;-52
2021/12/30 08:08:54;;;;;;;1.20;1.00;;;;;;;-140.79;100.00;63287.88;5023547;28;20034;-53
2021/12/30 08:11:19;;;;;;;1.73;1.20;;;;;;;-140.79;100.00;63287.88;5023386;28;20037;-53
2021/12/30 08:13:45;;;;;;;1.35;0.88;;;;;;;-140.79;100.00;63287.88;5023758;28;20042;-54
2021/12/30 08:16:12;;;;;;;1.08;0.90;;;;;;;-140.79;100.00;63287.88;5023917;28;20037;-52
2021/12/30 08:18:37;;;;;;;1.27;0.98;;;;;;;-140.79;100.00;63287.88;5023761;28;20581;-52
2021/12/30 08:21:02;;;;;;;1.67;1.00;;;;;;;-140.79;100.00;63287.88;5023931;28;20033;-52
2021/12/30 08:23:28;;;;;;;1.15;0.90;;;;;;;-140.79;100.00;63287.88;5023660;28;20053;-54
2021/12/30 08:25:53;;;;;;;1.15;0.85;;;;;;;-140.79;100.00;63287.88;5009698;28;20030;-51
2021/12/30 08:28:19;;;;;;;0.98;0.80;;;;;;;-140.79;100.00;63287.88;5009165;28;20041;-52
2021/12/30 08:30:44;;;;;;;1.30;0.98;;;;;;;-140.79;100.00;63287.88;5024140;28;20041;-52
2021/12/30 08:33:10;;;;;;;1.05;0.70;;;;;;;-140.79;100.00;63287.88;5016764;28;20048;-53
2021/12/30 08:35:35;;;;;;;1.15;0.90;;;;;;;-140.79;100.00;63287.88;5031357;28;20083;-54
2021/12/30 08:38:01;;;;;;;1.30;1.00;;;;;;;-140.79;100.00;63287.88;5006727;28;20084;-52
2021/12/30 08:40:26;;;;;;;1.38;0.98;;;;;;;-140.79;100.00;63287.88;5017992;28;20022;-53
2021/12/30 08:42:52;;;;;;;1.13;0.80;;;;;;;-140.79;100.00;63287.88;5004163;28;20497;-52
2021/12/30 08:45:18;;;;;;;1.05;0.73;;;;;;;-140.79;100.00;63287.88;5023610;28;20040;-52
2021/12/30 08:47:43;;;;;;;1.38;0.98;;;;;;;-140.79;100.00;63287.88;5020312;28;20038;-54
2021/12/30 08:50:10;;;;;;;1.70;0.90;;;;;;;-140.79;100.00;63287.88;5023488;28;20041;-54
2021/12/30 08:52:35;;;;;;;1.35;0.70;;;;;;;-140.79;100.00;63287.88;5038876;28;20029;-52
2021/12/30 08:55:04;;;;;;;1.92;1.17;;;;;;;-140.79;100.00;63287.88;5023740;28;20032;-51
2021/12/30 08:57:29;;;;;;;2.45;0.95;;;;;;;-140.79;100.00;63287.88;5023461;28;20041;-52
2021/12/30 08:59:55;;;;;;;2.30;1.00;;;;;;;-140.79;100.00;63287.88;5023416;28;20384;-52
2021/12/30 09:02:20;;;;;;;1.73;1.02;;;;;;;-140.79;100.00;63287.88;5023425;28;21262;-52
2021/12/30 09:04:46;;;;;;;1.65;1.00;;;;;;;-140.79;100.00;63287.88;5023378;28;20040;-51
2021/12/30 09:07:13;;;;;;;2.45;1.10;;;;;;;-140.79;100.00;63287.88;5026153;28;20504;-53
2021/12/30 09:09:39;;;;;;;2.28;1.10;;;;;;;-140.79;100.00;63287.88;5015463;28;20504;-51
2021/12/30 09:12:06;;;;;;;4.25;1.17;;;;;;;-140.79;100.00;63287.88;5024918;28;20033;-52
2021/12/30 09:14:31;;;;;;;3.70;1.10;;;;;;;-140.79;100.00;63287.88;5015745;28;20532;-53
2021/12/30 09:16:56;;;;;;;2.30;1.10;;;;;;;-140.79;100.00;63287.88;5009552;28;20057;-52
2021/12/30 09:19:22;;;;;;;4.00;1.38;;;;;;;-140.79;100.00;63287.88;5018999;28;20060;-53
2021/12/30 09:21:47;;;;;;;3.20;1.40;;;;;;;-140.79;100.00;63287.88;5025641;28;20033;-53
2021/12/30 09:24:13;;;;;;;4.47;1.52;;;;;;;-140.79;100.00;63287.88;5026606;28;20033;-52
2021/12/30 09:26:38;;;;;;;8.77;2.30;;;;;;;-140.79;100.00;63287.88;5025753;28;20017;-52
2021/12/30 09:29:10;;;;;;;4.80;1.85;;;;;;;-140.79;100.00;63287.88;5027126;28;20038;-52
2021/12/30 09:31:37;;;;;;;3.65;1.55;;;;;;;-140.79;100.00;63287.88;5026858;28;20133;-51
2021/12/30 09:34:03;;;;;;;3.53;1.70;;;;;;;-140.79;100.00;63287.88;5026622;28;20094;-51
2021/12/30 09:36:30;;;;;;;4.03;1.52;;;;;;;-140.79;100.00;63287.88;5026657;28;20144;-51
2021/12/30 09:38:55;;;;;;;3.88;1.70;;;;;;;-140.79;100.00;63287.88;5026271;28;20055;-52
2021/12/30 09:41:21;;;;;;;5.43;1.60;;;;;;;-140.79;100.00;63287.88;5026319;28;20033;-53
2021/12/30 09:43:46;;;;;;;4.25;1.73;;;;;;;-140.79;100.00;63287.88;5026374;28;20036;-52
2021/12/30 09:46:12;;;;;;;4.47;1.77;;;;;;;-140.79;100.00;63287.88;5026378;28;20029;-53
2021/12/30 09:48:37;;;;;;;7.45;1.83;;;;;;;-140.79;100.00;63287.88;5025475;28;20041;-55
2021/12/30 09:51:06;;;;;;;4.68;1.90;;;;;;;-140.79;100.00;63287.88;5026484;28;20906;-52
2021/12/30 09:53:32;;;;;;;7.05;1.83;;;;;;;-140.79;100.00;63287.88;5026488;28;20025;-53
2021/12/30 09:55:59;;;;;;;6.93;2.03;;;;;;;-140.79;100.00;63287.88;5026253;28;20037;-54
2021/12/30 09:58:25;;;;;;;7.80;2.20;;;;;;;-140.79;100.00;63287.88;5026508;28;20135;-52
2021/12/30 10:00:51;;;;;;;5.72;2.00;;;;;;;-140.79;100.00;63287.88;5026403;28;20113;-53
2021/12/30 10:03:16;;;;;;;6.38;2.15;;;;;;;-140.79;100.00;63287.88;5026513;28;20025;-54
2021/12/30 10:05:42;;;;;;;5.40;2.15;;;;;;;-140.79;100.00;63287.88;5026333;28;20099;-52
2021/12/30 10:08:13;;;;;;;5.38;2.05;;;;;;;-140.79;100.00;63287.88;5026111;28;20744;-54
2021/12/30 10:10:40;;;;;;;5.40;2.25;;;;;;;-140.79;100.00;63287.88;5031745;28;20025;-52
2021/12/30 10:13:20;;;;;;;5.03;2.53;;;;;;;-140.79;100.00;63287.88;5036795;28;20075;-53
2021/12/30 10:15:47;;;;;;;5.35;2.33;;;;;;;-140.79;100.00;63287.88;5025930;28;20499;-53
2021/12/30 10:18:13;;;;;;;5.32;2.30;;;;;;;-140.79;100.00;63287.88;5024654;28;20163;-53
2021/12/30 10:20:40;;;;;;;7.40;2.30;;;;;;;-140.79;100.00;63287.88;5025842;28;20104;-53
2021/12/30 10:23:32;;;;;;;7.18;2.22;;;;;;;-140.79;100.00;63287.88;5025924;28;20060;-52
2021/12/30 10:25:58;;;;;;;7.15;2.10;;;;;;;-140.79;100.00;63287.88;5025248;28;20120;-51
2021/12/30 10:28:28;;;;;;;8.32;2.10;;;;;;;-140.79;100.00;63287.88;5025730;28;20036;-52
2021/12/30 10:30:59;;;;;;;8.18;2.20;;;;;;;-140.79;100.00;63287.88;5025671;28;20129;-52
2021/12/30 10:33:26;;;;;;;7.05;2.55;;;;;;;-140.79;100.00;63287.88;5025926;28;20035;-52
2021/12/30 10:35:52;;;;;;;3.60;1.80;;;;;;;-140.79;100.00;63287.88;5025519;28;20040;-52
2021/12/30 10:38:18;;;;;;;5.43;2.28;;;;;;;-140.79;100.00;63287.88;5025470;28;20348;-53
2021/12/30 10:40:47;;;;;;;4.93;2.03;;;;;;;-140.79;100.00;63287.88;5040543;28;20045;-55
2021/12/30 10:44:08;;;;;;;5.63;2.05;;;;;;;-140.79;100.00;63287.88;5025682;28;20035;-53
2021/12/30 10:46:26;;;;;;;9.77;2.40;;;;;;;-140.79;100.00;63287.88;5019569;28;20120;-53
2021/12/30 10:48:59;;;;;;;6.95;2.30;;;;;;;-140.79;100.00;63287.88;5025447;28;20551;-53
2021/12/30 10:51:35;;;;;;;7.38;2.10;;;;;;;-140.79;100.00;63287.88;5025356;28;20124;-53
2021/12/30 10:54:09;;;;;;;4.47;1.83;;;;;;;-140.79;100.00;63287.88;5024923;28;20034;-55
2021/12/30 10:56:37;;;;;;;8.57;2.97;;;;;;;-140.79;100.00;63287.88;5025400;28;20095;-53
2021/12/30 10:59:14;;;;;;;6.05;2.42;;;;;;;-140.79;100.00;63287.88;5025483;28;20032;-54
2021/12/30 11:01:41;;;;;;;5.47;2.53;;;;;;;-140.79;100.00;63287.88;5025356;28;20029;-53
2021/12/30 11:04:06;;;;;;;5.90;2.30;;;;;;;-140.79;100.00;63287.88;5024609;28;20060;-54
2021/12/30 11:06:32;;;;;;;5.70;2.47;;;;;;;-140.79;100.00;63287.88;5025089;28;20108;-51